Time;durP1;ratioP1;P1;durP2;ratioP2;P2;SDS_P1;SDS_P2;PMS_P1;PMS_P2;Temp;Humidity;BMP_temperature;BMP_pressure;BME280_temperature;BME280_humidity;BME280_pressure;Samples;Min_cycle;Max_cycle;Signal;HPM_P1;HPM_P2
2023/12/08 00:01:13;;;;;;;15.70;11.60;;;;;;;;;;5030278;28;20206;-71
2023/12/08 00:03:40;;;;;;;13.70;10.63;;;;;;;;;;5023746;28;20210;-72
2023/12/08 00:06:08;;;;;;;14.07;10.80;;;;;;;;;;5043178;28;20285;-72
2023/12/08 00:08:37;;;;;;;13.10;10.13;;;;;;;;;;5036812;28;20703;-71
2023/12/08 00:11:05;;;;;;;17.33;10.97;;;;;;;;;;5036646;28;20254;-71
2023/12/08 00:13:33;;;;;;;15.33;10.63;;;;;;;;;;5043559;28;20682;-72
2023/12/08 00:16:00;;;;;;;13.17;10.67;;;;;;;;;;5037117;28;20213;-71
2023/12/08 00:18:27;;;;;;;16.83;12.23;;;;;;;;;;5046731;28;20229;-70
2023/12/08 00:20:55;;;;;;;17.73;11.57;;;;;;;;;;5041731;28;20209;-70
2023/12/08 00:23:22;;;;;;;17.30;12.10;;;;;;;;;;5042044;28;20209;-71
2023/12/08 00:25:49;;;;;;;19.13;12.73;;;;;;;;;;5042560;28;20215;-72
2023/12/08 00:28:17;;;;;;;20.63;12.87;;;;;;;;;;5028375;28;20223;-71
2023/12/08 00:30:45;;;;;;;14.17;11.30;;;;;;;;;;5043555;28;20264;-71
2023/12/08 00:33:12;;;;;;;15.77;11.27;;;;;;;;;;5041635;28;20572;-72
2023/12/08 00:35:39;;;;;;;16.00;12.00;;;;;;;;;;5049787;28;20206;-70
2023/12/08 00:38:07;;;;;;;16.17;11.80;;;;;;;;;;5052501;28;20205;-72
2023/12/08 00:40:34;;;;;;;16.17;11.60;;;;;;;;;;5036649;28;20649;-72
2023/12/08 00:43:01;;;;;;;17.43;11.70;;;;;;;;;;5042153;28;20684;-71
2023/12/08 00:45:28;;;;;;;14.73;11.50;;;;;;;;;;5043907;28;20210;-72
2023/12/08 00:47:56;;;;;;;16.70;11.47;;;;;;;;;;5044941;28;20578;-71
2023/12/08 00:50:23;;;;;;;16.30;11.47;;;;;;;;;;5046587;28;20679;-71
2023/12/08 00:52:51;;;;;;;17.63;12.07;;;;;;;;;;5047939;28;20202;-72
2023/12/08 00:55:18;;;;;;;19.03;13.13;;;;;;;;;;5031104;28;20279;-71
2023/12/08 00:57:45;;;;;;;17.20;13.00;;;;;;;;;;5043070;28;20230;-71
2023/12/08 01:00:13;;;;;;;18.43;13.20;;;;;;;;;;5041773;28;20344;-71
2023/12/08 01:02:40;;;;;;;20.10;13.67;;;;;;;;;;5039114;28;20206;-71
2023/12/08 01:05:08;;;;;;;15.63;11.90;;;;;;;;;;5042275;28;20211;-71
2023/12/08 01:07:35;;;;;;;18.23;12.80;;;;;;;;;;5038761;28;20207;-72
2023/12/08 01:10:02;;;;;;;19.53;13.57;;;;;;;;;;5029388;28;20229;-71
2023/12/08 01:12:30;;;;;;;16.87;12.07;;;;;;;;;;5038590;28;20211;-72
2023/12/08 01:14:57;;;;;;;18.37;12.67;;;;;;;;;;5047729;28;20194;-71
2023/12/08 01:17:24;;;;;;;19.17;13.50;;;;;;;;;;5035997;28;20293;-71
2023/12/08 01:19:52;;;;;;;15.87;12.13;;;;;;;;;;5039321;28;20257;-72
2023/12/08 01:22:19;;;;;;;16.87;10.67;;;;;;;;;;5042965;28;20214;-71
2023/12/08 01:24:46;;;;;;;15.67;11.20;;;;;;;;;;5044756;28;20226;-69
2023/12/08 01:27:14;;;;;;;13.27;10.67;;;;;;;;;;5041334;28;20557;-70
2023/12/08 01:29:41;;;;;;;13.83;10.83;;;;;;;;;;5042160;28;20693;-70
2023/12/08 01:32:08;;;;;;;16.30;11.23;;;;;;;;;;5040512;28;20686;-70
2023/12/08 01:34:36;;;;;;;16.17;11.17;;;;;;;;;;5044424;28;20731;-72
2023/12/08 01:37:03;;;;;;;15.03;11.47;;;;;;;;;;5032786;28;20710;-71
2023/12/08 01:39:30;;;;;;;15.97;11.53;;;;;;;;;;5035060;28;20213;-70
2023/12/08 01:41:57;;;;;;;15.73;10.77;;;;;;;;;;5042035;28;20233;-72
2023/12/08 01:44:25;;;;;;;12.77;10.37;;;;;;;;;;5036223;28;20763;-71
2023/12/08 01:46:52;;;;;;;14.13;11.13;;;;;;;;;;5037665;28;20209;-72
2023/12/08 01:49:19;;;;;;;16.63;11.90;;;;;;;;;;5038592;28;20237;-72
2023/12/08 01:51:47;;;;;;;14.87;11.50;;;;;;;;;;5032328;28;20254;-70
2023/12/08 01:54:15;;;;;;;16.70;11.13;;;;;;;;;;5032196;28;20289;-72
2023/12/08 01:56:43;;;;;;;18.93;11.90;;;;;;;;;;5034803;28;20210;-72
2023/12/08 01:59:11;;;;;;;17.63;11.60;;;;;;;;;;5038401;28;20226;-72
2023/12/08 02:01:38;;;;;;;16.87;12.07;;;;;;;;;;5031472;28;20222;-71
2023/12/08 02:04:05;;;;;;;17.27;12.60;;;;;;;;;;5033320;28;20670;-70
2023/12/08 02:06:32;;;;;;;21.50;12.73;;;;;;;;;;5036277;28;20645;-69
2023/12/08 02:09:00;;;;;;;20.93;12.97;;;;;;;;;;5033117;28;20222;-71
2023/12/08 02:11:27;;;;;;;18.27;13.43;;;;;;;;;;5043008;28;20280;-71
2023/12/08 02:13:55;;;;;;;18.30;12.87;;;;;;;;;;5037591;28;20260;-70
2023/12/08 02:16:26;;;;;;;17.37;13.03;;;;;;;;;;5036190;28;20207;-71
2023/12/08 02:18:55;;;;;;;17.67;13.10;;;;;;;;;;5037808;28;20232;-72
2023/12/08 02:21:23;;;;;;;21.97;13.37;;;;;;;;;;5062587;28;20210;-68
2023/12/08 02:23:50;;;;;;;20.50;13.57;;;;;;;;;;5031227;28;20206;-70
2023/12/08 02:26:19;;;;;;;21.13;13.77;;;;;;;;;;5033346;28;20213;-70
2023/12/08 02:28:46;;;;;;;18.97;13.43;;;;;;;;;;5017081;28;21293;-70
2023/12/08 02:31:16;;;;;;;16.00;12.37;;;;;;;;;;5039146;28;20235;-71
2023/12/08 02:33:47;;;;;;;18.30;13.37;;;;;;;;;;5037593;28;20207;-71
2023/12/08 02:36:16;;;;;;;20.57;14.33;;;;;;;;;;5039650;28;21192;-70
2023/12/08 02:38:44;;;;;;;19.03;13.83;;;;;;;;;;5031913;28;20234;-71
2023/12/08 02:41:11;;;;;;;18.50;14.40;;;;;;;;;;5031019;28;20201;-71
2023/12/08 02:43:38;;;;;;;21.13;14.50;;;;;;;;;;5041255;28;20211;-70
2023/12/08 02:46:06;;;;;;;19.40;14.70;;;;;;;;;;5032221;28;20210;-71
2023/12/08 02:48:33;;;;;;;18.83;13.57;;;;;;;;;;5042471;28;20236;-70
2023/12/08 02:51:02;;;;;;;19.07;14.27;;;;;;;;;;5031390;28;21258;-71
2023/12/08 02:53:29;;;;;;;21.10;14.37;;;;;;;;;;5041115;28;20293;-71
2023/12/08 02:55:57;;;;;;;20.60;14.93;;;;;;;;;;5034983;28;20216;-70
2023/12/08 02:58:24;;;;;;;22.43;14.53;;;;;;;;;;5041331;28;20221;-71
2023/12/08 03:00:51;;;;;;;20.07;14.03;;;;;;;;;;5035029;28;20225;-70
2023/12/08 03:03:18;;;;;;;20.50;14.33;;;;;;;;;;5031890;28;20307;-71
2023/12/08 03:05:46;;;;;;;21.27;15.00;;;;;;;;;;5037545;28;20202;-70
2023/12/08 03:08:13;;;;;;;22.57;15.17;;;;;;;;;;5029409;28;20312;-71
2023/12/08 03:10:40;;;;;;;20.70;14.73;;;;;;;;;;5032403;28;20327;-70
2023/12/08 03:13:08;;;;;;;20.30;14.17;;;;;;;;;;5040954;28;20550;-70
2023/12/08 03:15:35;;;;;;;22.63;15.37;;;;;;;;;;5036746;28;20205;-70
2023/12/08 03:18:02;;;;;;;21.93;15.23;;;;;;;;;;5030474;28;20650;-71
2023/12/08 03:20:29;;;;;;;19.23;14.20;;;;;;;;;;5022508;28;20211;-70
2023/12/08 03:22:57;;;;;;;21.53;15.53;;;;;;;;;;5029516;28;20674;-70
2023/12/08 03:25:24;;;;;;;23.60;16.13;;;;;;;;;;5017278;28;20272;-70
2023/12/08 03:27:51;;;;;;;24.27;16.50;;;;;;;;;;5034167;28;20210;-70
2023/12/08 03:30:18;;;;;;;24.87;16.50;;;;;;;;;;5036083;28;20221;-70
2023/12/08 03:32:46;;;;;;;22.30;15.30;;;;;;;;;;5023242;28;20286;-71
2023/12/08 03:35:13;;;;;;;22.33;15.87;;;;;;;;;;5040508;28;20200;-71
2023/12/08 03:37:41;;;;;;;21.00;14.93;;;;;;;;;;5038244;28;20199;-70
2023/12/08 03:40:09;;;;;;;23.83;16.53;;;;;;;;;;5042672;28;20229;-69
2023/12/08 03:42:37;;;;;;;21.50;15.97;;;;;;;;;;5040467;28;20193;-70
2023/12/08 03:45:05;;;;;;;23.87;16.70;;;;;;;;;;5043281;28;20205;-70
2023/12/08 03:47:32;;;;;;;21.93;16.30;;;;;;;;;;5043439;28;20198;-70
2023/12/08 03:50:00;;;;;;;21.67;15.23;;;;;;;;;;5046460;28;20224;-70
2023/12/08 03:52:27;;;;;;;27.23;16.43;;;;;;;;;;5052688;28;20206;-70
2023/12/08 03:54:55;;;;;;;25.90;16.63;;;;;;;;;;5044059;28;20202;-70
2023/12/08 03:57:22;;;;;;;24.67;17.20;;;;;;;;;;5038450;28;20210;-70
2023/12/08 03:59:49;;;;;;;24.63;16.07;;;;;;;;;;5048276;28;20234;-70
2023/12/08 04:02:17;;;;;;;22.97;16.07;;;;;;;;;;5030978;28;20226;-71
2023/12/08 04:04:44;;;;;;;26.33;17.03;;;;;;;;;;5043346;28;20285;-70
2023/12/08 04:07:11;;;;;;;26.27;16.80;;;;;;;;;;5051751;28;20275;-70
2023/12/08 04:09:38;;;;;;;21.43;15.70;;;;;;;;;;5048978;28;20762;-71
2023/12/08 04:12:06;;;;;;;19.80;13.93;;;;;;;;;;5045993;28;20275;-71
2023/12/08 04:14:33;;;;;;;21.87;14.33;;;;;;;;;;5046044;28;20198;-71
2023/12/08 04:17:00;;;;;;;19.20;13.80;;;;;;;;;;5026815;28;20566;-70
2023/12/08 04:19:28;;;;;;;20.97;13.93;;;;;;;;;;5044914;28;20218;-70
2023/12/08 04:21:55;;;;;;;18.67;13.37;;;;;;;;;;5042782;28;20206;-71
2023/12/08 04:24:23;;;;;;;19.80;14.20;;;;;;;;;;5045825;28;21256;-71
2023/12/08 04:26:50;;;;;;;18.90;13.30;;;;;;;;;;5044193;28;20268;-70
2023/12/08 04:29:17;;;;;;;18.93;12.90;;;;;;;;;;5047690;28;20305;-69
2023/12/08 04:31:44;;;;;;;17.50;13.17;;;;;;;;;;5044424;28;20232;-71
2023/12/08 04:34:12;;;;;;;18.60;12.93;;;;;;;;;;5041070;28;20583;-69
2023/12/08 04:36:39;;;;;;;15.90;11.47;;;;;;;;;;5046493;28;20199;-71
2023/12/08 04:39:06;;;;;;;15.43;11.27;;;;;;;;;;5040947;28;20226;-71
2023/12/08 04:41:34;;;;;;;14.10;10.93;;;;;;;;;;5029988;28;20204;-69
2023/12/08 04:44:01;;;;;;;12.90;9.90;;;;;;;;;;5045649;28;20644;-70
2023/12/08 04:46:29;;;;;;;13.53;10.17;;;;;;;;;;5035908;28;20207;-71
2023/12/08 04:48:56;;;;;;;15.90;10.33;;;;;;;;;;5040264;28;20217;-71
2023/12/08 04:51:23;;;;;;;15.53;10.83;;;;;;;;;;5027097;28;20731;-71
2023/12/08 04:53:50;;;;;;;14.13;10.37;;;;;;;;;;5045946;28;20728;-70
2023/12/08 04:56:18;;;;;;;13.00;10.43;;;;;;;;;;5037809;28;20452;-71
2023/12/08 04:58:47;;;;;;;17.27;10.33;;;;;;;;;;5033044;28;20218;-70
2023/12/08 05:01:15;;;;;;;19.50;11.10;;;;;;;;;;5034443;28;20206;-71
2023/12/08 05:03:42;;;;;;;11.87;9.90;;;;;;;;;;5031741;28;20296;-71
2023/12/08 05:06:09;;;;;;;15.27;11.77;;;;;;;;;;5043570;28;20266;-70
2023/12/08 05:08:37;;;;;;;15.90;11.03;;;;;;;;;;5040919;28;20345;-70
2023/12/08 05:11:04;;;;;;;16.33;11.77;;;;;;;;;;5030587;28;20356;-69
2023/12/08 05:13:31;;;;;;;13.83;10.77;;;;;;;;;;5040244;28;20255;-70
2023/12/08 05:15:58;;;;;;;14.03;10.73;;;;;;;;;;5041377;28;20194;-70
2023/12/08 05:18:26;;;;;;;16.33;10.97;;;;;;;;;;5031197;28;20643;-71
2023/12/08 05:20:53;;;;;;;10.97;8.93;;;;;;;;;;5039310;28;20288;-69
2023/12/08 05:23:21;;;;;;;13.27;10.00;;;;;;;;;;5011979;28;20207;-70
2023/12/08 05:25:48;;;;;;;12.60;9.17;;;;;;;;;;5037689;28;20210;-70
2023/12/08 05:28:16;;;;;;;14.43;11.13;;;;;;;;;;5047247;28;20218;-69
2023/12/08 05:30:45;;;;;;;15.93;11.03;;;;;;;;;;5038487;28;20202;-70
2023/12/08 05:33:13;;;;;;;14.93;11.13;;;;;;;;;;5027716;28;20204;-70
2023/12/08 05:35:40;;;;;;;15.63;11.30;;;;;;;;;;5030434;28;20284;-70
2023/12/08 05:38:07;;;;;;;17.80;12.73;;;;;;;;;;5017321;28;20198;-71
2023/12/08 05:40:35;;;;;;;17.50;12.40;;;;;;;;;;5034305;28;20206;-70
2023/12/08 05:43:02;;;;;;;10.97;8.60;;;;;;;;;;5031274;28;20206;-70
2023/12/08 05:45:29;;;;;;;11.40;7.13;;;;;;;;;;5037325;28;20266;-71
2023/12/08 05:47:57;;;;;;;8.03;7.10;;;;;;;;;;5045460;28;20203;-70
2023/12/08 05:50:24;;;;;;;8.57;6.97;;;;;;;;;;5037028;28;20199;-70
2023/12/08 05:52:51;;;;;;;4.87;4.10;;;;;;;;;;5043838;28;20226;-70
2023/12/08 05:55:19;;;;;;;6.60;4.30;;;;;;;;;;5042779;28;20353;-70
2023/12/08 05:57:46;;;;;;;5.07;3.50;;;;;;;;;;5038780;28;20577;-70
2023/12/08 06:00:17;;;;;;;3.30;3.00;;;;;;;;;;5016927;28;20690;-70
2023/12/08 06:02:45;;;;;;;3.00;2.70;;;;;;;;;;5038107;28;20201;-70
2023/12/08 06:05:13;;;;;;;2.97;2.60;;;;;;;;;;5042912;28;20598;-70
2023/12/08 06:07:40;;;;;;;2.77;2.50;;;;;;;;;;5029551;28;20636;-71
2023/12/08 06:10:08;;;;;;;2.90;2.70;;;;;;;;;;5050574;28;20595;-71
2023/12/08 06:12:36;;;;;;;2.57;2.37;;;;;;;;;;5041442;28;20226;-70
2023/12/08 06:15:03;;;;;;;3.13;2.67;;;;;;;;;;5041201;28;20226;-72
2023/12/08 06:17:31;;;;;;;2.87;2.57;;;;;;;;;;5031895;28;20298;-71
2023/12/08 06:19:58;;;;;;;3.83;3.20;;;;;;;;;;5046266;28;20225;-71
2023/12/08 06:22:26;;;;;;;3.53;3.23;;;;;;;;;;5039681;28;20206;-71
2023/12/08 06:24:53;;;;;;;4.60;4.07;;;;;;;;;;5043212;28;20221;-70
2023/12/08 06:27:20;;;;;;;5.23;4.33;;;;;;;;;;5029314;28;20305;-71
2023/12/08 06:29:50;;;;;;;5.53;5.00;;;;;;;;;;5028147;28;20222;-70
2023/12/08 06:32:20;;;;;;;6.00;5.00;;;;;;;;;;5038568;28;20226;-71
2023/12/08 06:34:47;;;;;;;9.17;6.67;;;;;;;;;;5030920;28;20249;-71
2023/12/08 06:37:15;;;;;;;8.50;5.73;;;;;;;;;;5029352;28;20195;-70
2023/12/08 06:39:42;;;;;;;7.23;6.13;;;;;;;;;;5031762;28;20222;-71
2023/12/08 06:42:10;;;;;;;8.17;6.57;;;;;;;;;;5035984;28;20216;-70
2023/12/08 06:44:37;;;;;;;10.30;6.13;;;;;;;;;;5037952;28;20298;-71
2023/12/08 06:47:05;;;;;;;10.17;7.30;;;;;;;;;;5035922;28;20203;-71
2023/12/08 06:49:32;;;;;;;7.50;5.83;;;;;;;;;;5022209;28;20741;-71
2023/12/08 06:52:00;;;;;;;7.63;6.27;;;;;;;;;;5035920;28;20774;-71
2023/12/08 06:54:27;;;;;;;9.53;6.70;;;;;;;;;;5033139;28;20233;-70
2023/12/08 06:56:54;;;;;;;15.83;9.60;;;;;;;;;;5032957;28;20647;-71
2023/12/08 06:59:22;;;;;;;18.70;11.97;;;;;;;;;;5048196;28;20242;-70
2023/12/08 07:01:49;;;;;;;9.53;6.97;;;;;;;;;;5040154;28;20650;-70
2023/12/08 07:04:16;;;;;;;9.80;7.53;;;;;;;;;;5044717;28;20665;-71
2023/12/08 07:06:44;;;;;;;9.70;7.27;;;;;;;;;;5033524;28;20631;-70
2023/12/08 07:09:11;;;;;;;9.03;6.97;;;;;;;;;;5036383;28;20257;-71
2023/12/08 07:11:40;;;;;;;8.90;6.60;;;;;;;;;;5039636;28;20256;-69
2023/12/08 07:14:07;;;;;;;10.53;7.03;;;;;;;;;;5021988;28;20746;-71
2023/12/08 07:16:34;;;;;;;9.60;7.23;;;;;;;;;;5033434;28;20213;-71
2023/12/08 07:19:02;;;;;;;9.60;7.33;;;;;;;;;;5027238;28;20314;-70
2023/12/08 07:21:30;;;;;;;9.60;6.97;;;;;;;;;;5015148;28;20209;-71
2023/12/08 07:23:57;;;;;;;9.57;6.87;;;;;;;;;;5018893;28;20210;-70
2023/12/08 07:26:25;;;;;;;10.50;7.40;;;;;;;;;;5024066;28;20212;-71
2023/12/08 07:28:52;;;;;;;9.40;7.27;;;;;;;;;;5037965;28;20252;-71
2023/12/08 07:31:19;;;;;;;10.13;6.70;;;;;;;;;;5039146;28;20670;-71
2023/12/08 07:33:46;;;;;;;9.33;6.87;;;;;;;;;;5045874;28;20708;-71
2023/12/08 07:36:14;;;;;;;10.77;7.40;;;;;;;;;;5051518;28;20662;-70
2023/12/08 07:38:41;;;;;;;8.80;6.07;;;;;;;;;;5043720;28;20221;-72
2023/12/08 07:41:08;;;;;;;11.33;7.00;;;;;;;;;;5035579;28;20574;-71
2023/12/08 07:43:36;;;;;;;8.37;6.90;;;;;;;;;;5050003;28;20202;-71
2023/12/08 07:46:07;;;;;;;10.30;8.00;;;;;;;;;;5050437;28;20194;-71
2023/12/08 07:48:34;;;;;;;10.03;6.70;;;;;;;;;;5043739;28;20221;-71
2023/12/08 07:51:02;;;;;;;10.40;7.30;;;;;;;;;;5040482;28;20210;-72
2023/12/08 07:53:29;;;;;;;8.13;6.57;;;;;;;;;;5032904;28;20623;-71
2023/12/08 07:55:57;;;;;;;9.53;6.03;;;;;;;;;;5027168;28;20202;-71
2023/12/08 07:58:24;;;;;;;9.67;6.80;;;;;;;;;;5045961;28;20221;-72
2023/12/08 08:00:51;;;;;;;9.37;6.80;;;;;;;;;;5032433;28;20214;-71
2023/12/08 08:03:18;;;;;;;10.47;7.63;;;;;;;;;;5045806;28;20210;-70
2023/12/08 08:05:46;;;;;;;12.23;7.47;;;;;;;;;;5042528;28;20309;-70
2023/12/08 08:08:14;;;;;;;11.20;7.53;;;;;;;;;;5043705;28;20636;-71
2023/12/08 08:10:41;;;;;;;12.23;7.03;;;;;;;;;;5019831;28;20210;-72
2023/12/08 08:13:09;;;;;;;8.43;6.33;;;;;;;;;;5022291;28;20233;-70
2023/12/08 08:15:40;;;;;;;7.90;6.27;;;;;;;;;;5044603;28;20194;-71
2023/12/08 08:18:16;;;;;;;8.10;6.17;;;;;;;;;;5048121;28;20198;-71
2023/12/08 08:20:56;;;;;;;8.67;6.07;;;;;;;;;;5047912;28;20202;-72
2023/12/08 08:23:33;;;;;;;10.27;6.73;;;;;;;;;;5053479;28;20220;-72
2023/12/08 08:26:00;;;;;;;8.70;6.17;;;;;;;;;;5042282;28;20210;-72
2023/12/08 08:28:27;;;;;;;8.37;6.20;;;;;;;;;;5038894;28;20262;-72
2023/12/08 08:30:55;;;;;;;6.83;5.77;;;;;;;;;;5044435;28;20222;-71
2023/12/08 08:33:22;;;;;;;13.77;9.53;;;;;;;;;;5042407;28;20234;-72
2023/12/08 08:35:51;;;;;;;12.23;6.87;;;;;;;;;;5048261;28;20234;-72
2023/12/08 08:38:18;;;;;;;8.07;6.17;;;;;;;;;;5048029;28;20225;-72
2023/12/08 08:40:46;;;;;;;9.63;6.63;;;;;;;;;;5053653;28;20647;-72
2023/12/08 08:43:14;;;;;;;7.87;6.73;;;;;;;;;;5041247;28;20615;-71
2023/12/08 08:45:41;;;;;;;9.00;6.43;;;;;;;;;;5039809;28;20220;-71
2023/12/08 08:48:08;;;;;;;8.23;5.73;;;;;;;;;;5047876;28;20228;-71
2023/12/08 08:50:36;;;;;;;11.23;6.57;;;;;;;;;;5039678;28;20237;-70
2023/12/08 08:53:16;;;;;;;7.37;5.57;;;;;;;;;;5032324;28;20617;-71
2023/12/08 08:55:44;;;;;;;7.60;5.93;;;;;;;;;;5040236;28;20225;-72
2023/12/08 08:58:12;;;;;;;8.07;5.90;;;;;;;;;;5045112;28;20236;-71
2023/12/08 09:00:40;;;;;;;6.70;5.40;;;;;;;;;;5035221;28;20194;-71
2023/12/08 09:03:07;;;;;;;7.23;4.77;;;;;;;;;;5027757;28;20214;-70
2023/12/08 09:05:40;;;;;;;15.53;9.73;;;;;;;;;;5046575;28;20264;-69
2023/12/08 09:08:09;;;;;;;8.40;4.97;;;;;;;;;;5050464;28;20257;-71
2023/12/08 09:10:37;;;;;;;8.43;5.97;;;;;;;;;;5027360;28;20662;-71
2023/12/08 09:13:04;;;;;;;14.97;9.07;;;;;;;;;;5036605;28;20227;-72
2023/12/08 09:15:31;;;;;;;8.77;5.70;;;;;;;;;;5047927;28;20430;-71
2023/12/08 09:17:59;;;;;;;8.43;5.70;;;;;;;;;;5038344;28;20292;-71
2023/12/08 09:20:26;;;;;;;8.40;6.00;;;;;;;;;;5043012;28;20241;-70
2023/12/08 09:22:54;;;;;;;8.27;6.40;;;;;;;;;;5042430;28;20234;-71
2023/12/08 09:25:21;;;;;;;7.70;6.50;;;;;;;;;;5004897;28;1205799;-72
2023/12/08 09:27:49;;;;;;;7.23;5.63;;;;;;;;;;5040028;28;20211;-71
2023/12/08 09:30:16;;;;;;;8.20;6.33;;;;;;;;;;5043500;28;20235;-71
2023/12/08 09:32:44;;;;;;;9.00;7.10;;;;;;;;;;5031851;28;20305;-71
2023/12/08 09:35:12;;;;;;;6.93;5.97;;;;;;;;;;5034371;28;20195;-71
2023/12/08 09:37:39;;;;;;;9.13;5.23;;;;;;;;;;5019162;28;20230;-71
2023/12/08 09:40:08;;;;;;;6.40;5.40;;;;;;;;;;5041296;28;20308;-71
2023/12/08 09:42:36;;;;;;;12.50;9.13;;;;;;;;;;5039712;28;20279;-71
2023/12/08 09:45:09;;;;;;;5.60;4.20;;;;;;;;;;5056298;28;20579;-70
2023/12/08 09:47:37;;;;;;;6.83;5.20;;;;;;;;;;5036615;28;20199;-71
2023/12/08 09:50:09;;;;;;;6.40;4.90;;;;;;;;;;5043936;28;20231;-71
2023/12/08 09:52:37;;;;;;;6.07;4.93;;;;;;;;;;5031164;28;20226;-70
2023/12/08 09:55:05;;;;;;;6.70;5.40;;;;;;;;;;5042326;28;20668;-71
2023/12/08 09:57:34;;;;;;;6.43;5.50;;;;;;;;;;5047275;28;20206;-71
2023/12/08 10:00:13;;;;;;;7.40;5.97;;;;;;;;;;5041822;28;20568;-70
2023/12/08 10:02:41;;;;;;;7.33;5.63;;;;;;;;;;5036002;28;20298;-71
2023/12/08 10:05:13;;;;;;;9.07;6.70;;;;;;;;;;5041301;28;20263;-71
2023/12/08 10:07:43;;;;;;;7.83;6.13;;;;;;;;;;5045245;28;20319;-71
2023/12/08 10:10:11;;;;;;;7.90;6.40;;;;;;;;;;5029831;28;20228;-71
2023/12/08 10:12:39;;;;;;;7.30;5.60;;;;;;;;;;5047962;28;20237;-71
2023/12/08 10:15:11;;;;;;;7.93;5.87;;;;;;;;;;5026670;28;20674;-71
2023/12/08 10:17:48;;;;;;;8.10;5.73;;;;;;;;;;5053684;28;20649;-72
2023/12/08 10:20:18;;;;;;;6.63;5.57;;;;;;;;;;5048971;28;20685;-71
2023/12/08 10:22:53;;;;;;;7.13;5.37;;;;;;;;;;5047064;28;20197;-71
2023/12/08 10:25:24;;;;;;;7.03;5.27;;;;;;;;;;5038900;28;20253;-70
2023/12/08 10:27:56;;;;;;;7.03;5.77;;;;;;;;;;5046459;28;20217;-71
2023/12/08 10:30:24;;;;;;;7.53;5.60;;;;;;;;;;5044658;28;20210;-71
2023/12/08 10:32:51;;;;;;;8.67;6.20;;;;;;;;;;5043962;28;20329;-71
2023/12/08 10:35:20;;;;;;;7.07;5.40;;;;;;;;;;5048375;28;20238;-71
2023/12/08 10:37:50;;;;;;;5.60;4.90;;;;;;;;;;5047066;28;20210;-71
2023/12/08 10:40:18;;;;;;;7.30;5.60;;;;;;;;;;5039792;28;20744;-71
2023/12/08 10:42:47;;;;;;;6.87;5.57;;;;;;;;;;5046252;28;20588;-71
2023/12/08 10:45:15;;;;;;;8.20;5.63;;;;;;;;;;5050673;28;20293;-71
2023/12/08 10:47:45;;;;;;;6.10;5.13;;;;;;;;;;5037751;28;20207;-72
2023/12/08 10:50:14;;;;;;;7.33;5.37;;;;;;;;;;5049515;28;20222;-71
2023/12/08 10:52:41;;;;;;;5.83;5.23;;;;;;;;;;5040607;28;20702;-70
2023/12/08 10:55:11;;;;;;;5.73;4.73;;;;;;;;;;5048014;28;20216;-71
2023/12/08 10:57:39;;;;;;;7.13;5.60;;;;;;;;;;5046407;28;20202;-72
2023/12/08 11:00:18;;;;;;;5.47;4.60;;;;;;;;;;5042217;28;20244;-71
2023/12/08 11:02:49;;;;;;;7.10;5.33;;;;;;;;;;5039116;28;20296;-71
2023/12/08 11:05:37;;;;;;;6.80;4.90;;;;;;;;;;5034085;28;20742;-71
2023/12/08 11:08:12;;;;;;;6.23;5.30;;;;;;;;;;5041691;28;20197;-71
2023/12/08 11:10:42;;;;;;;5.87;5.17;;;;;;;;;;5044674;28;20292;-71
2023/12/08 11:13:17;;;;;;;6.20;5.40;;;;;;;;;;5014923;28;20691;-70
2023/12/08 11:15:46;;;;;;;6.33;5.47;;;;;;;;;;5038657;28;20214;-71
2023/12/08 11:18:35;;;;;;;7.90;6.50;;;;;;;;;;5032235;28;20234;-71
2023/12/08 11:21:09;;;;;;;5.90;5.30;;;;;;;;;;5034264;28;20206;-71
2023/12/08 11:23:39;;;;;;;7.57;6.37;;;;;;;;;;5046299;28;20201;-71
2023/12/08 11:26:16;;;;;;;7.53;5.60;;;;;;;;;;5040464;28;20287;-70
2023/12/08 11:29:02;;;;;;;7.00;5.90;;;;;;;;;;5051498;28;20716;-70
2023/12/08 11:31:35;;;;;;;9.13;6.17;;;;;;;;;;5028474;28;20214;-71
2023/12/08 11:34:11;;;;;;;8.37;5.80;;;;;;;;;;5037678;28;20230;-71
2023/12/08 11:36:43;;;;;;;6.57;5.20;;;;;;;;;;5033508;28;20612;-70
2023/12/08 11:39:29;;;;;;;6.30;5.70;;;;;;;;;;5031594;28;20288;-71
2023/12/08 11:41:56;;;;;;;8.03;6.07;;;;;;;;;;5044839;28;20582;-71
2023/12/08 11:44:24;;;;;;;6.17;5.50;;;;;;;;;;5040153;28;20654;-71
2023/12/08 11:46:52;;;;;;;6.40;5.70;;;;;;;;;;5041220;28;20214;-72
2023/12/08 11:49:19;;;;;;;6.10;5.33;;;;;;;;;;5043696;28;20230;-71
2023/12/08 11:52:06;;;;;;;6.23;5.40;;;;;;;;;;5032980;28;20202;-71
2023/12/08 11:54:52;;;;;;;6.60;5.50;;;;;;;;;;5036030;28;20227;-72
2023/12/08 11:57:36;;;;;;;6.67;5.60;;;;;;;;;;5038048;28;20304;-72
2023/12/08 12:00:07;;;;;;;6.23;5.63;;;;;;;;;;5019924;28;20219;-71
2023/12/08 12:02:34;;;;;;;5.63;5.10;;;;;;;;;;5026282;28;20641;-71
2023/12/08 12:05:02;;;;;;;6.10;5.37;;;;;;;;;;5044187;28;20252;-71
2023/12/08 12:07:30;;;;;;;6.10;5.50;;;;;;;;;;5045893;28;20213;-71
2023/12/08 12:09:57;;;;;;;6.40;5.20;;;;;;;;;;5025230;28;20236;-71
2023/12/08 12:12:30;;;;;;;5.90;5.30;;;;;;;;;;5045168;28;20243;-71
2023/12/08 12:14:57;;;;;;;6.00;5.40;;;;;;;;;;5049679;28;20215;-71
2023/12/08 12:17:25;;;;;;;6.70;5.57;;;;;;;;;;5035719;28;20214;-72
2023/12/08 12:19:53;;;;;;;7.07;5.53;;;;;;;;;;5021206;28;20225;-71
2023/12/08 12:22:20;;;;;;;6.63;5.57;;;;;;;;;;5062282;28;20212;-71
2023/12/08 12:24:48;;;;;;;6.00;5.40;;;;;;;;;;5063284;28;20677;-70
2023/12/08 12:27:15;;;;;;;7.73;6.23;;;;;;;;;;5038016;28;20860;-71
2023/12/08 12:29:43;;;;;;;7.20;5.90;;;;;;;;;;5049075;28;20745;-71
2023/12/08 12:32:11;;;;;;;6.00;5.40;;;;;;;;;;5032396;28;20203;-71
2023/12/08 12:34:39;;;;;;;7.20;6.10;;;;;;;;;;5055621;28;20668;-70
2023/12/08 12:37:07;;;;;;;7.30;6.50;;;;;;;;;;5045210;28;20202;-71
2023/12/08 12:39:35;;;;;;;7.67;6.90;;;;;;;;;;5045801;28;20262;-71
2023/12/08 12:42:03;;;;;;;6.80;6.10;;;;;;;;;;5025201;28;20209;-72
2023/12/08 12:44:39;;;;;;;7.03;6.00;;;;;;;;;;5045955;28;20239;-71
2023/12/08 12:47:09;;;;;;;14.53;11.10;;;;;;;;;;5041366;28;20235;-72
2023/12/08 12:49:37;;;;;;;9.60;8.30;;;;;;;;;;5031362;28;20226;-72
2023/12/08 12:52:25;;;;;;;7.87;6.93;;;;;;;;;;5045796;28;20214;-70
2023/12/08 12:54:53;;;;;;;8.57;7.33;;;;;;;;;;5038132;28;20222;-71
2023/12/08 12:57:49;;;;;;;8.57;7.47;;;;;;;;;;5024592;28;20207;-71
2023/12/08 13:00:34;;;;;;;8.77;7.23;;;;;;;;;;5026324;28;20219;-71
2023/12/08 13:03:06;;;;;;;8.27;7.23;;;;;;;;;;5038658;28;20211;-71
2023/12/08 13:05:34;;;;;;;8.00;6.87;;;;;;;;;;5031739;28;20207;-71
2023/12/08 13:08:01;;;;;;;9.07;7.20;;;;;;;;;;5034347;28;20685;-71
2023/12/08 13:10:29;;;;;;;7.23;6.33;;;;;;;;;;5037273;28;20220;-72
2023/12/08 13:12:57;;;;;;;8.30;7.27;;;;;;;;;;5030102;28;20695;-71
2023/12/08 13:15:24;;;;;;;9.97;7.80;;;;;;;;;;5038332;28;20206;-72
2023/12/08 13:17:51;;;;;;;8.17;7.03;;;;;;;;;;5036780;28;20226;-72
2023/12/08 13:20:20;;;;;;;8.57;7.50;;;;;;;;;;5017663;28;20207;-71
2023/12/08 13:22:47;;;;;;;10.43;8.23;;;;;;;;;;5050718;28;20212;-72
2023/12/08 13:25:14;;;;;;;10.73;8.80;;;;;;;;;;5043806;28;20213;-70
2023/12/08 13:27:41;;;;;;;11.23;8.67;;;;;;;;;;5036742;28;20596;-70
2023/12/08 13:30:09;;;;;;;12.20;9.20;;;;;;;;;;5033860;28;20269;-72
2023/12/08 13:32:36;;;;;;;10.80;8.40;;;;;;;;;;5036286;28;20210;-72
2023/12/08 13:35:06;;;;;;;12.50;8.87;;;;;;;;;;5038543;28;20203;-72
2023/12/08 13:37:35;;;;;;;11.87;8.67;;;;;;;;;;5032388;28;20229;-72
2023/12/08 13:40:03;;;;;;;12.07;9.73;;;;;;;;;;5035006;28;20226;-71
2023/12/08 13:42:32;;;;;;;12.73;9.20;;;;;;;;;;5032453;28;20211;-70
2023/12/08 13:45:02;;;;;;;11.00;8.87;;;;;;;;;;5033600;28;20207;-70
2023/12/08 13:47:30;;;;;;;11.23;8.80;;;;;;;;;;5047355;28;20198;-70
2023/12/08 13:49:58;;;;;;;10.60;8.07;;;;;;;;;;5052004;28;20265;-70
2023/12/08 13:52:25;;;;;;;9.77;8.23;;;;;;;;;;5055136;28;20229;-70
2023/12/08 13:54:53;;;;;;;10.37;8.40;;;;;;;;;;5043403;28;20617;-70
2023/12/08 13:57:20;;;;;;;12.53;8.63;;;;;;;;;;5041355;28;20236;-71
2023/12/08 13:59:47;;;;;;;11.20;8.50;;;;;;;;;;5050611;28;20233;-71
2023/12/08 14:02:15;;;;;;;11.77;8.17;;;;;;;;;;5029511;28;20199;-72
2023/12/08 14:04:43;;;;;;;10.50;7.97;;;;;;;;;;5020167;28;20225;-71
2023/12/08 14:07:10;;;;;;;10.90;8.77;;;;;;;;;;5050485;28;20209;-71
2023/12/08 14:09:37;;;;;;;11.13;8.30;;;;;;;;;;5049561;28;20269;-71
2023/12/08 14:12:09;;;;;;;11.07;8.67;;;;;;;;;;5041663;28;20228;-69
2023/12/08 14:14:36;;;;;;;11.83;9.73;;;;;;;;;;5044215;28;20319;-71
2023/12/08 14:17:04;;;;;;;11.60;8.67;;;;;;;;;;5052086;28;20203;-71
2023/12/08 14:19:32;;;;;;;15.53;10.37;;;;;;;;;;5040514;28;20635;-71
2023/12/08 14:21:59;;;;;;;12.27;8.83;;;;;;;;;;5024493;28;20202;-71
2023/12/08 14:24:27;;;;;;;14.80;10.93;;;;;;;;;;5037610;28;20674;-69
2023/12/08 14:26:54;;;;;;;14.50;9.50;;;;;;;;;;5039067;28;20214;-71
2023/12/08 14:29:22;;;;;;;14.50;10.40;;;;;;;;;;5044022;28;20253;-72
2023/12/08 14:31:49;;;;;;;12.27;9.40;;;;;;;;;;5052157;28;20216;-70
2023/12/08 14:34:17;;;;;;;13.90;9.63;;;;;;;;;;5039828;28;20710;-71
2023/12/08 14:36:45;;;;;;;12.97;8.90;;;;;;;;;;5023667;28;20199;-71
2023/12/08 14:39:13;;;;;;;14.23;9.27;;;;;;;;;;5034879;28;20639;-71